SWA3776 KSLC-KPHX
Flight info
| Callsign | SWA3776 |
|---|---|
| Flight time | 1h 9m |
| Altitude | 37000 |
| Route | ZIONZ1 BCE CORKR TENTS BRUSR1 |
| Aircraft | B38M/M-SADE2E3GHIJ4J7P2RWZ/LB1D1 |
Departure
| Time | 2026-05-06 23:48 |
|---|---|
| Airport | Salt Lake City International Airport (KSLC) |
Arrival
| Time | 2026-05-07 00:58 |
|---|---|
| Airport | Phoenix Sky Harbor International Airport (KPHX) |
| Time | Latitude | Longitude | Altitude | Speed | Heading |
|---|---|---|---|---|---|
| 2026-05-06 23:29 | 40.78872 | -111.98212 | 4233 ft | 0 kts | 355° |
| 2026-05-06 23:40 | 40.78871 | -111.98212 | 4233 ft | 2 kts | 355° |
| 2026-05-06 23:40 | 40.78845 | -111.98211 | 4233 ft | 4 kts | 4° |
| 2026-05-06 23:40 | 40.78819 | -111.98216 | 4233 ft | 4 kts | 20° |
| 2026-05-06 23:40 | 40.78799 | -111.98234 | 4233 ft | 4 kts | 61° |
| 2026-05-06 23:41 | 40.78795 | -111.98247 | 4233 ft | 0 kts | 85° |
| 2026-05-06 23:44 | 40.78797 | -111.98216 | 4233 ft | 10 kts | 85° |
| 2026-05-06 23:44 | 40.78809 | -111.98038 | 4233 ft | 27 kts | 85° |
| 2026-05-06 23:45 | 40.78827 | -111.97831 | 4233 ft | 7 kts | 85° |
| 2026-05-06 23:45 | 40.78827 | -111.97817 | 4234 ft | 3 kts | 87° |
| 2026-05-06 23:45 | 40.78825 | -111.97726 | 4234 ft | 13 kts | 113° |
| 2026-05-06 23:45 | 40.78733 | -111.97680 | 4233 ft | 16 kts | 173° |
| 2026-05-06 23:46 | 40.78589 | -111.97662 | 4233 ft | 26 kts | 175° |
| 2026-05-06 23:46 | 40.78371 | -111.97637 | 4233 ft | 36 kts | 175° |
| 2026-05-06 23:46 | 40.78127 | -111.97610 | 4233 ft | 35 kts | 175° |
| 2026-05-06 23:46 | 40.77886 | -111.97543 | 4233 ft | 36 kts | 163° |
| 2026-05-06 23:47 | 40.77646 | -111.97505 | 4234 ft | 26 kts | 174° |
| 2026-05-06 23:47 | 40.77559 | -111.97404 | 4233 ft | 18 kts | 79° |
| 2026-05-06 23:47 | 40.77659 | -111.97337 | 4233 ft | 20 kts | 356° |
| 2026-05-06 23:47 | 40.78001 | -111.97376 | 4233 ft | 85 kts | 354° |
| 2026-05-06 23:48 | 40.78833 | -111.97475 | 4236 ft | 152 kts | 355° |
| 2026-05-06 23:48 | 40.80032 | -111.97611 | 4556 ft | 185 kts | 352° |
| 2026-05-06 23:48 | 40.81292 | -111.98142 | 5189 ft | 197 kts | 322° |
| 2026-05-06 23:48 | 40.82165 | -111.99523 | 5862 ft | 205 kts | 292° |
| 2026-05-06 23:49 | 40.82463 | -112.01449 | 6402 ft | 225 kts | 277° |
| 2026-05-06 23:49 | 40.82500 | -112.03617 | 6794 ft | 247 kts | 271° |
| 2026-05-06 23:49 | 40.82168 | -112.05920 | 7382 ft | 261 kts | 249° |
| 2026-05-06 23:49 | 40.81418 | -112.08100 | 8266 ft | 266 kts | 250° |
| 2026-05-06 23:50 | 40.80688 | -112.10435 | 8837 ft | 284 kts | 250° |
| 2026-05-06 23:50 | 40.79142 | -112.15368 | 10374 ft | 297 kts | 251° |
| 2026-05-06 23:50 | 40.78325 | -112.17972 | 10798 ft | 316 kts | 251° |
| 2026-05-06 23:51 | 40.77515 | -112.20548 | 11260 ft | 330 kts | 251° |
| 2026-05-06 23:51 | 40.76606 | -112.23380 | 11941 ft | 339 kts | 246° |
| 2026-05-06 23:51 | 40.75187 | -112.25895 | 12836 ft | 348 kts | 225° |
| 2026-05-06 23:51 | 40.73118 | -112.27589 | 13680 ft | 358 kts | 202° |
| 2026-05-06 23:52 | 40.70662 | -112.28288 | 14483 ft | 364 kts | 189° |
| 2026-05-06 23:52 | 40.68130 | -112.28791 | 15194 ft | 371 kts | 190° |
| 2026-05-06 23:52 | 40.65561 | -112.29321 | 15984 ft | 376 kts | 190° |
| 2026-05-06 23:52 | 40.62987 | -112.29847 | 16701 ft | 382 kts | 190° |
| 2026-05-06 23:53 | 40.60331 | -112.30387 | 17453 ft | 387 kts | 189° |
| 2026-05-06 23:53 | 40.57649 | -112.30932 | 18172 ft | 393 kts | 189° |
| 2026-05-06 23:53 | 40.54968 | -112.31775 | 18814 ft | 397 kts | 199° |
| 2026-05-06 23:53 | 40.52326 | -112.32866 | 19451 ft | 401 kts | 199° |
| 2026-05-06 23:54 | 40.49645 | -112.33963 | 20066 ft | 405 kts | 199° |
| 2026-05-06 23:54 | 40.46933 | -112.35073 | 20682 ft | 409 kts | 199° |
| 2026-05-06 23:54 | 40.44197 | -112.36191 | 21302 ft | 413 kts | 199° |
| 2026-05-06 23:54 | 40.41436 | -112.37319 | 21901 ft | 417 kts | 199° |
| 2026-05-06 23:55 | 40.38646 | -112.38457 | 22490 ft | 422 kts | 199° |
| 2026-05-06 23:55 | 40.35826 | -112.39607 | 23072 ft | 426 kts | 199° |
| 2026-05-06 23:55 | 40.32984 | -112.40765 | 23642 ft | 430 kts | 199° |
| 2026-05-06 23:55 | 40.30118 | -112.41931 | 24122 ft | 434 kts | 199° |
| 2026-05-06 23:56 | 40.27262 | -112.43092 | 24588 ft | 437 kts | 199° |
| 2026-05-06 23:56 | 40.24313 | -112.44290 | 25055 ft | 441 kts | 199° |
| 2026-05-06 23:56 | 40.21373 | -112.45484 | 25510 ft | 444 kts | 199° |
| 2026-05-06 23:56 | 40.18421 | -112.46734 | 25960 ft | 446 kts | 204° |
| 2026-05-06 23:57 | 40.15700 | -112.48554 | 26394 ft | 447 kts | 212° |
| 2026-05-06 23:57 | 40.13008 | -112.50461 | 26800 ft | 451 kts | 211° |
| 2026-05-06 23:57 | 40.10229 | -112.52414 | 27242 ft | 454 kts | 211° |
| 2026-05-06 23:57 | 40.07441 | -112.54374 | 27679 ft | 457 kts | 211° |
| 2026-05-06 23:58 | 40.04631 | -112.56349 | 28123 ft | 460 kts | 211° |
| 2026-05-06 23:58 | 40.01799 | -112.58337 | 28529 ft | 463 kts | 211° |
| 2026-05-06 23:58 | 39.98955 | -112.60333 | 28959 ft | 466 kts | 211° |
| 2026-05-06 23:58 | 39.96080 | -112.62347 | 29358 ft | 470 kts | 211° |
| 2026-05-06 23:59 | 39.93198 | -112.64365 | 29750 ft | 473 kts | 211° |
| 2026-05-06 23:59 | 39.90289 | -112.66400 | 30148 ft | 476 kts | 211° |
| 2026-05-06 23:59 | 39.87360 | -112.68447 | 30482 ft | 478 kts | 211° |
| 2026-05-06 23:59 | 39.84424 | -112.70497 | 30837 ft | 480 kts | 211° |
| 2026-05-07 00:00 | 39.81470 | -112.72558 | 31174 ft | 483 kts | 211° |
| 2026-05-07 00:00 | 39.78500 | -112.74626 | 31498 ft | 485 kts | 211° |
| 2026-05-07 00:00 | 39.75516 | -112.76704 | 31832 ft | 487 kts | 211° |
| 2026-05-07 00:00 | 39.72522 | -112.78786 | 32163 ft | 489 kts | 211° |
| 2026-05-07 00:01 | 39.69486 | -112.80818 | 32472 ft | 494 kts | 205° |
| 2026-05-07 00:01 | 39.66220 | -112.82021 | 32848 ft | 498 kts | 189° |
| 2026-05-07 00:01 | 39.62765 | -112.82610 | 33147 ft | 501 kts | 188° |
| 2026-05-07 00:01 | 39.59302 | -112.83184 | 33442 ft | 504 kts | 188° |
| 2026-05-07 00:02 | 39.55812 | -112.83731 | 33787 ft | 505 kts | 188° |
| 2026-05-07 00:02 | 39.52309 | -112.84260 | 34158 ft | 506 kts | 187° |
| 2026-05-07 00:02 | 39.48822 | -112.84782 | 34556 ft | 505 kts | 187° |
| 2026-05-07 00:02 | 39.45332 | -112.85302 | 34922 ft | 504 kts | 187° |
| 2026-05-07 00:03 | 39.41845 | -112.85821 | 35292 ft | 503 kts | 187° |
| 2026-05-07 00:03 | 39.38357 | -112.86340 | 35642 ft | 503 kts | 187° |
| 2026-05-07 00:03 | 39.34921 | -112.86850 | 35974 ft | 502 kts | 187° |
| 2026-05-07 00:03 | 39.31454 | -112.87365 | 36302 ft | 502 kts | 187° |
| 2026-05-07 00:04 | 39.27984 | -112.87879 | 36622 ft | 501 kts | 187° |
| 2026-05-07 00:04 | 39.24556 | -112.88386 | 36921 ft | 501 kts | 187° |
| 2026-05-07 00:04 | 39.21043 | -112.88906 | 37107 ft | 502 kts | 187° |
| 2026-05-07 00:04 | 39.17619 | -112.89412 | 37097 ft | 501 kts | 187° |
| 2026-05-07 00:05 | 39.10933 | -112.90398 | 37078 ft | 499 kts | 187° |
| 2026-05-07 00:05 | 39.04016 | -112.91417 | 37071 ft | 499 kts | 187° |
| 2026-05-07 00:06 | 38.97113 | -112.92431 | 37092 ft | 499 kts | 187° |
| 2026-05-07 00:06 | 38.90253 | -112.93438 | 37082 ft | 499 kts | 187° |
| 2026-05-07 00:07 | 38.83345 | -112.94450 | 37084 ft | 499 kts | 187° |
| 2026-05-07 00:07 | 38.76451 | -112.95457 | 37093 ft | 499 kts | 187° |
| 2026-05-07 00:08 | 38.69552 | -112.96463 | 37114 ft | 499 kts | 187° |
| 2026-05-07 00:08 | 38.62666 | -112.97465 | 37135 ft | 499 kts | 187° |
| 2026-05-07 00:09 | 38.55770 | -112.98467 | 37157 ft | 498 kts | 186° |
| 2026-05-07 00:09 | 38.48878 | -112.99466 | 37172 ft | 499 kts | 186° |
| 2026-05-07 00:10 | 38.41976 | -113.00448 | 37172 ft | 499 kts | 184° |
| 2026-05-07 00:10 | 38.38531 | -113.00283 | 37166 ft | 495 kts | 168° |
| 2026-05-07 00:10 | 38.35234 | -112.99111 | 37169 ft | 491 kts | 153° |
| 2026-05-07 00:11 | 38.32330 | -112.97005 | 37166 ft | 483 kts | 139° |
| 2026-05-07 00:11 | 38.29694 | -112.94360 | 37150 ft | 485 kts | 137° |
| 2026-05-07 00:11 | 38.24470 | -112.88944 | 37133 ft | 484 kts | 136° |
| 2026-05-07 00:12 | 38.19296 | -112.83466 | 37121 ft | 484 kts | 136° |
| 2026-05-07 00:12 | 38.14115 | -112.77962 | 37083 ft | 484 kts | 135° |
| 2026-05-07 00:13 | 38.08942 | -112.72479 | 37063 ft | 484 kts | 136° |
| 2026-05-07 00:13 | 38.03773 | -112.67008 | 37079 ft | 484 kts | 136° |
| 2026-05-07 00:14 | 37.98615 | -112.61560 | 37060 ft | 482 kts | 136° |
| 2026-05-07 00:14 | 37.93488 | -112.56154 | 37051 ft | 482 kts | 136° |
| 2026-05-07 00:15 | 37.88419 | -112.50820 | 37078 ft | 482 kts | 136° |
| 2026-05-07 00:15 | 37.83255 | -112.45395 | 37098 ft | 481 kts | 136° |
| 2026-05-07 00:16 | 37.78097 | -112.39988 | 37129 ft | 482 kts | 136° |
| 2026-05-07 00:16 | 37.72923 | -112.34590 | 37170 ft | 483 kts | 138° |
| 2026-05-07 00:17 | 37.70036 | -112.32393 | 37177 ft | 489 kts | 153° |
| 2026-05-07 00:17 | 37.66781 | -112.31098 | 37174 ft | 495 kts | 169° |
| 2026-05-07 00:17 | 37.63338 | -112.30855 | 37177 ft | 497 kts | 181° |
| 2026-05-07 00:17 | 37.59866 | -112.31015 | 37148 ft | 499 kts | 181° |
| 2026-05-07 00:18 | 37.52934 | -112.31375 | 37101 ft | 499 kts | 182° |
| 2026-05-07 00:18 | 37.45983 | -112.31793 | 37038 ft | 500 kts | 182° |
| 2026-05-07 00:19 | 37.39078 | -112.32214 | 36987 ft | 500 kts | 182° |
| 2026-05-07 00:19 | 37.32141 | -112.32636 | 36968 ft | 499 kts | 181° |
| 2026-05-07 00:20 | 37.25205 | -112.33057 | 36977 ft | 499 kts | 181° |
| 2026-05-07 00:20 | 37.19438 | -112.33407 | 36964 ft | 498 kts | 181° |
| 2026-05-07 00:21 | 37.12516 | -112.33826 | 36965 ft | 498 kts | 181° |
| 2026-05-07 00:21 | 37.05630 | -112.34242 | 36966 ft | 497 kts | 181° |
| 2026-05-07 00:22 | 36.98720 | -112.34658 | 36960 ft | 497 kts | 181° |
| 2026-05-07 00:22 | 36.91815 | -112.35074 | 36974 ft | 496 kts | 181° |
| 2026-05-07 00:23 | 36.84916 | -112.35489 | 36977 ft | 496 kts | 181° |
| 2026-05-07 00:23 | 36.78024 | -112.35902 | 36980 ft | 495 kts | 181° |
| 2026-05-07 00:24 | 36.71134 | -112.36314 | 36988 ft | 495 kts | 181° |
| 2026-05-07 00:24 | 36.64250 | -112.36726 | 36999 ft | 495 kts | 181° |
| 2026-05-07 00:25 | 36.57416 | -112.37133 | 36999 ft | 495 kts | 181° |
| 2026-05-07 00:25 | 36.50575 | -112.37540 | 37002 ft | 494 kts | 181° |
| 2026-05-07 00:26 | 36.43701 | -112.37949 | 37009 ft | 494 kts | 181° |
| 2026-05-07 00:26 | 36.36825 | -112.38358 | 36982 ft | 495 kts | 181° |
| 2026-05-07 00:27 | 36.29954 | -112.38763 | 37024 ft | 494 kts | 181° |
| 2026-05-07 00:27 | 36.23187 | -112.39164 | 37030 ft | 493 kts | 181° |
| 2026-05-07 00:28 | 36.16265 | -112.39572 | 37054 ft | 493 kts | 181° |
| 2026-05-07 00:28 | 36.09403 | -112.39984 | 37082 ft | 493 kts | 182° |
| 2026-05-07 00:29 | 36.02554 | -112.40594 | 37088 ft | 493 kts | 182° |
| 2026-05-07 00:30 | 35.88905 | -112.41777 | 37086 ft | 493 kts | 182° |
| 2026-05-07 00:30 | 35.82063 | -112.42368 | 37069 ft | 492 kts | 182° |
| 2026-05-07 00:31 | 35.75225 | -112.42957 | 37011 ft | 492 kts | 182° |
| 2026-05-07 00:31 | 35.68403 | -112.43545 | 37013 ft | 492 kts | 182° |
| 2026-05-07 00:32 | 35.61578 | -112.44131 | 37019 ft | 491 kts | 182° |
| 2026-05-07 00:32 | 35.54762 | -112.44714 | 36350 ft | 489 kts | 182° |
| 2026-05-07 00:33 | 35.51363 | -112.45004 | 35155 ft | 501 kts | 181° |
| 2026-05-07 00:33 | 35.47853 | -112.44871 | 34474 ft | 495 kts | 168° |
| 2026-05-07 00:33 | 35.44504 | -112.44225 | 33719 ft | 494 kts | 167° |
| 2026-05-07 00:33 | 35.41093 | -112.43581 | 32763 ft | 498 kts | 167° |
| 2026-05-07 00:34 | 35.37677 | -112.42918 | 32104 ft | 495 kts | 167° |
| 2026-05-07 00:34 | 35.34293 | -112.42255 | 31615 ft | 488 kts | 167° |
| 2026-05-07 00:34 | 35.30963 | -112.41602 | 31066 ft | 483 kts | 167° |
| 2026-05-07 00:34 | 35.27660 | -112.40954 | 30449 ft | 480 kts | 167° |
| 2026-05-07 00:35 | 35.24361 | -112.40308 | 29750 ft | 478 kts | 167° |
| 2026-05-07 00:35 | 35.21094 | -112.39669 | 29159 ft | 473 kts | 167° |
| 2026-05-07 00:35 | 35.17890 | -112.38992 | 28832 ft | 461 kts | 166° |
| 2026-05-07 00:35 | 35.14770 | -112.38307 | 28698 ft | 447 kts | 166° |
| 2026-05-07 00:36 | 35.11770 | -112.37656 | 28716 ft | 430 kts | 166° |
| 2026-05-07 00:36 | 35.08862 | -112.37027 | 28719 ft | 426 kts | 166° |
| 2026-05-07 00:36 | 35.05898 | -112.36386 | 28650 ft | 439 kts | 166° |
| 2026-05-07 00:36 | 35.02855 | -112.35730 | 28593 ft | 449 kts | 166° |
| 2026-05-07 00:37 | 34.96634 | -112.34390 | 28544 ft | 456 kts | 166° |
| 2026-05-07 00:37 | 34.90433 | -112.33056 | 28561 ft | 455 kts | 166° |
| 2026-05-07 00:38 | 34.84198 | -112.31697 | 28449 ft | 454 kts | 165° |
| 2026-05-07 00:38 | 34.81094 | -112.31013 | 28107 ft | 452 kts | 165° |
| 2026-05-07 00:38 | 34.78015 | -112.30336 | 27612 ft | 446 kts | 166° |
| 2026-05-07 00:39 | 34.74968 | -112.29665 | 27122 ft | 442 kts | 166° |
| 2026-05-07 00:39 | 34.71959 | -112.29005 | 26669 ft | 438 kts | 166° |
| 2026-05-07 00:39 | 34.68977 | -112.28350 | 26207 ft | 433 kts | 166° |
| 2026-05-07 00:39 | 34.66022 | -112.27702 | 25745 ft | 430 kts | 166° |
| 2026-05-07 00:40 | 34.63089 | -112.27059 | 25286 ft | 426 kts | 166° |
| 2026-05-07 00:40 | 34.60181 | -112.26422 | 24823 ft | 423 kts | 166° |
| 2026-05-07 00:40 | 34.57328 | -112.25797 | 24359 ft | 420 kts | 166° |
| 2026-05-07 00:40 | 34.54462 | -112.25171 | 23910 ft | 417 kts | 167° |
| 2026-05-07 00:41 | 34.51611 | -112.24547 | 23415 ft | 415 kts | 167° |
| 2026-05-07 00:41 | 34.48776 | -112.23928 | 22903 ft | 412 kts | 167° |
| 2026-05-07 00:41 | 34.45968 | -112.23314 | 22437 ft | 409 kts | 167° |
| 2026-05-07 00:41 | 34.43207 | -112.22624 | 21939 ft | 406 kts | 165° |
| 2026-05-07 00:42 | 34.40457 | -112.21901 | 21504 ft | 402 kts | 165° |
| 2026-05-07 00:42 | 34.37737 | -112.21195 | 21078 ft | 398 kts | 165° |
| 2026-05-07 00:42 | 34.35031 | -112.20496 | 20643 ft | 396 kts | 165° |
| 2026-05-07 00:42 | 34.32346 | -112.19804 | 20221 ft | 393 kts | 165° |
| 2026-05-07 00:43 | 34.29675 | -112.19116 | 19789 ft | 390 kts | 165° |
| 2026-05-07 00:43 | 34.27025 | -112.18434 | 19375 ft | 388 kts | 166° |
| 2026-05-07 00:43 | 34.24392 | -112.17757 | 18968 ft | 386 kts | 166° |
| 2026-05-07 00:43 | 34.21771 | -112.17084 | 18554 ft | 384 kts | 166° |
| 2026-05-07 00:44 | 34.19163 | -112.16415 | 18120 ft | 382 kts | 166° |
| 2026-05-07 00:44 | 34.16601 | -112.15756 | 17664 ft | 380 kts | 166° |
| 2026-05-07 00:44 | 34.14047 | -112.15101 | 17261 ft | 376 kts | 166° |
| 2026-05-07 00:44 | 34.11501 | -112.14449 | 16881 ft | 372 kts | 166° |
| 2026-05-07 00:45 | 34.08969 | -112.13795 | 16463 ft | 369 kts | 165° |
| 2026-05-07 00:45 | 34.06552 | -112.12841 | 15793 ft | 373 kts | 158° |
| 2026-05-07 00:45 | 34.04059 | -112.11791 | 15226 ft | 375 kts | 159° |
| 2026-05-07 00:45 | 34.01583 | -112.10773 | 14654 ft | 378 kts | 159° |
| 2026-05-07 00:46 | 33.99121 | -112.09776 | 14075 ft | 369 kts | 159° |
| 2026-05-07 00:46 | 33.96741 | -112.08820 | 13495 ft | 361 kts | 159° |
| 2026-05-07 00:46 | 33.94382 | -112.07877 | 12883 ft | 353 kts | 159° |
| 2026-05-07 00:46 | 33.92077 | -112.06956 | 12331 ft | 345 kts | 159° |
| 2026-05-07 00:47 | 33.89831 | -112.06060 | 11795 ft | 337 kts | 159° |
| 2026-05-07 00:47 | 33.87629 | -112.05176 | 11305 ft | 329 kts | 159° |
| 2026-05-07 00:47 | 33.85494 | -112.04307 | 10894 ft | 319 kts | 159° |
| 2026-05-07 00:47 | 33.83494 | -112.03495 | 10553 ft | 310 kts | 159° |
| 2026-05-07 00:48 | 33.81730 | -112.02779 | 10244 ft | 302 kts | 159° |
| 2026-05-07 00:48 | 33.79718 | -112.01964 | 9895 ft | 297 kts | 159° |
| 2026-05-07 00:48 | 33.77759 | -112.01171 | 9504 ft | 296 kts | 159° |
| 2026-05-07 00:48 | 33.75809 | -112.00381 | 9134 ft | 294 kts | 159° |
| 2026-05-07 00:49 | 33.73986 | -111.99644 | 9001 ft | 293 kts | 159° |
| 2026-05-07 00:49 | 33.72052 | -111.98862 | 8932 ft | 293 kts | 159° |
| 2026-05-07 00:49 | 33.70124 | -111.98083 | 8883 ft | 292 kts | 159° |
| 2026-05-07 00:49 | 33.68308 | -111.97350 | 8832 ft | 292 kts | 159° |
| 2026-05-07 00:50 | 33.66407 | -111.96582 | 8764 ft | 284 kts | 160° |
| 2026-05-07 00:50 | 33.65599 | -111.96257 | 8725 ft | 282 kts | 160° |
| 2026-05-07 00:50 | 33.63802 | -111.95530 | 8435 ft | 283 kts | 160° |
| 2026-05-07 00:50 | 33.61938 | -111.94777 | 8116 ft | 283 kts | 160° |
| 2026-05-07 00:51 | 33.60076 | -111.94024 | 7823 ft | 281 kts | 160° |
| 2026-05-07 00:51 | 33.58226 | -111.93277 | 7546 ft | 279 kts | 160° |
| 2026-05-07 00:51 | 33.56395 | -111.92538 | 7279 ft | 277 kts | 161° |
| 2026-05-07 00:51 | 33.54594 | -111.91749 | 7045 ft | 272 kts | 151° |
| 2026-05-07 00:52 | 33.53259 | -111.90258 | 6899 ft | 259 kts | 117° |
| 2026-05-07 00:52 | 33.52803 | -111.88251 | 6811 ft | 244 kts | 90° |
| 2026-05-07 00:52 | 33.52779 | -111.86254 | 6744 ft | 238 kts | 89° |
| 2026-05-07 00:52 | 33.52765 | -111.84282 | 6654 ft | 237 kts | 87° |
| 2026-05-07 00:53 | 33.52793 | -111.82307 | 6533 ft | 236 kts | 90° |
| 2026-05-07 00:53 | 33.52323 | -111.80441 | 6223 ft | 239 kts | 126° |
| 2026-05-07 00:53 | 33.51056 | -111.79198 | 5924 ft | 237 kts | 155° |
| 2026-05-07 00:53 | 33.49490 | -111.78734 | 5595 ft | 236 kts | 181° |
| 2026-05-07 00:54 | 33.47891 | -111.79147 | 5258 ft | 234 kts | 207° |
| 2026-05-07 00:54 | 33.46446 | -111.79972 | 4954 ft | 231 kts | 206° |
| 2026-05-07 00:54 | 33.45010 | -111.80852 | 4532 ft | 228 kts | 220° |
| 2026-05-07 00:54 | 33.44166 | -111.82399 | 4015 ft | 228 kts | 257° |
| 2026-05-07 00:55 | 33.44060 | -111.84259 | 3611 ft | 222 kts | 271° |
| 2026-05-07 00:55 | 33.44062 | -111.86092 | 3293 ft | 218 kts | 270° |
| 2026-05-07 00:55 | 33.44065 | -111.87895 | 2972 ft | 215 kts | 271° |
| 2026-05-07 00:55 | 33.44069 | -111.89657 | 2705 ft | 204 kts | 270° |
| 2026-05-07 00:56 | 33.44071 | -111.91257 | 2474 ft | 180 kts | 270° |
| 2026-05-07 00:56 | 33.44072 | -111.92678 | 2246 ft | 160 kts | 270° |
| 2026-05-07 00:56 | 33.44074 | -111.93936 | 2055 ft | 145 kts | 272° |
| 2026-05-07 00:56 | 33.44071 | -111.95124 | 1851 ft | 142 kts | 270° |
| 2026-05-07 00:57 | 33.44077 | -111.96304 | 1628 ft | 142 kts | 271° |
| 2026-05-07 00:57 | 33.44072 | -111.97501 | 1479 ft | 147 kts | 272° |
| 2026-05-07 00:57 | 33.44082 | -111.98702 | 1264 ft | 141 kts | 270° |
| 2026-05-07 00:57 | 33.44084 | -111.99688 | 1131 ft | 130 kts | 271° |
| 2026-05-07 00:58 | 33.44084 | -112.00596 | 1125 ft | 74 kts | 270° |
| 2026-05-07 00:58 | 33.44087 | -112.01071 | 1128 ft | 39 kts | 271° |
| 2026-05-07 00:58 | 33.44072 | -112.01306 | 1130 ft | 26 kts | 246° |
| 2026-05-07 00:58 | 33.43978 | -112.01305 | 1117 ft | 15 kts | 105° |
| 2026-05-07 00:59 | 33.43975 | -112.01002 | 1121 ft | 24 kts | 90° |
| 2026-05-07 00:59 | 33.43974 | -112.00744 | 1121 ft | 36 kts | 90° |
| 2026-05-07 00:59 | 33.43974 | -112.00446 | 1120 ft | 26 kts | 92° |
| 2026-05-07 01:00 | 33.43865 | -112.00381 | 1122 ft | 20 kts | 179° |
| 2026-05-07 01:00 | 33.43674 | -112.00380 | 1120 ft | 34 kts | 180° |
| 2026-05-07 01:00 | 33.43439 | -112.00380 | 1121 ft | 35 kts | 180° |
| 2026-05-07 01:00 | 33.43334 | -112.00377 | 1118 ft | 2 kts | 164° |
| 2026-05-07 01:01 | 33.43283 | -112.00305 | 1127 ft | 18 kts | 88° |
| 2026-05-07 01:01 | 33.43284 | -112.00127 | 1124 ft | 24 kts | 88° |
| 2026-05-07 01:01 | 33.43316 | -112.00068 | 1123 ft | 4 kts | 323° |
| 2026-05-07 01:01 | 33.43339 | -112.00108 | 1127 ft | 8 kts | 306° |
| 2026-05-07 01:02 | 33.43358 | -112.00135 | 1121 ft | 2 kts | 315° |
| 2026-05-07 01:02 | 33.43368 | -112.00146 | 1127 ft | 0 kts | 315° |